メインページ
METAR-TAF:

METAR-TAF

空港 :

ベン・グリオン国際空港

テルアビブ / ベン・グリオン, イスラエル

緯度: 32-00N, 経度: 034-54E, 海抜: 40m

現時点の気象観測

当レポートは34分前の22:20(UTC)に作成
変向風 2kt
気温 25°C
湿度 69%
気圧 1009 hPa
視程10km以上
高度2400ftの雲は散在している

METAR: LLBG 182220Z VRB02KT 9999 SCT024 25/19 Q1009 NOSIG

時間: 01:54 (22:54 UTC)

予報

当レポートは5時間53分前の17:01(UTC)に作成
予報は18日の 18時(UTC)から 19日の 18時(UTC)まで有効
北西の風 5kt
視程10km以上
高度2500ftの雲は散在している
18日の 20時(UTC)から 18日の 22時(UTC)まで徐々に
変向風 3kt
19日の 05時(UTC)から 19日の 07時(UTC)まで徐々に
西/北西の風 10kt
視程10km以上
1,500メートル以下は雲なし、積乱雲なし
19日の 14時(UTC)から 19日の 16時(UTC)まで徐々に
の風 6kt

TAF: LLBG 181701Z 1818/1918 32005KT 9999 SCT025 BECMG 1820/1822 VRB03KT BECMG 1905/1907 30010KT CAVOK BECMG 1914/1916 36006KT TX32/1911Z TN21/1903Z

4,000以上の空港の気象観測と天気予報(METAR報とTAF報)

利用可能な観測所は地図上に黄色い丸と赤い丸で示す。

丸の上にカーソルを重ねると観測所名を参照できる。

次にクリックすると気象観測と天気予報を参照できる。

マップの切り替え:黒色「×」印の緑ボタンをクリックして拡大、「-」印の緑ボタンをクリックして縮小、緑色の三角印をクリックして隣りの地図に切り替え


METAR-TAF: